sensor_id;sensor_type;location;lat;lon;timestamp;pressure;altitude;pressure_sealevel;temperature;humidity
70053;BME280;57398;52.032;4.376;2024-01-15T00:00:18;99637.88;;;2.61;nan
70053;BME280;57398;52.032;4.376;2024-01-15T00:03:06;99646.72;;;2.59;nan
70053;BME280;57398;52.032;4.376;2024-01-15T00:05:55;99775.78;;;2.92;nan
70053;BME280;57398;52.032;4.376;2024-01-15T00:08:44;99938.81;;;3.02;nan
70053;BME280;57398;52.032;4.376;2024-01-15T00:11:32;100074.63;;;3.03;nan
70053;BME280;57398;52.032;4.376;2024-01-15T00:14:20;100118.75;;;2.92;nan
70053;BME280;57398;52.032;4.376;2024-01-15T00:17:08;100137.41;;;2.86;nan
70053;BME280;57398;52.032;4.376;2024-01-15T00:19:56;100146.56;;;3.17;nan
70053;BME280;57398;52.032;4.376;2024-01-15T00:22:45;100142.50;;;3.01;nan
70053;BME280;57398;52.032;4.376;2024-01-15T00:25:33;100117.75;;;2.93;nan
70053;BME280;57398;52.032;4.376;2024-01-15T00:28:22;100098.53;;;3.10;nan
70053;BME280;57398;52.032;4.376;2024-01-15T00:31:10;100074.00;;;3.01;nan
70053;BME280;57398;52.032;4.376;2024-01-15T00:33:58;100025.69;;;2.77;nan
70053;BME280;57398;52.032;4.376;2024-01-15T00:36:47;99953.66;;;2.71;nan
70053;BME280;57398;52.032;4.376;2024-01-15T00:39:36;99859.69;;;2.99;nan
70053;BME280;57398;52.032;4.376;2024-01-15T00:42:24;99837.53;;;2.84;nan
70053;BME280;57398;52.032;4.376;2024-01-15T00:45:13;99807.91;;;2.82;nan
70053;BME280;57398;52.032;4.376;2024-01-15T00:48:01;99768.44;;;2.76;nan
70053;BME280;57398;52.032;4.376;2024-01-15T00:50:49;99728.84;;;2.92;nan
70053;BME280;57398;52.032;4.376;2024-01-15T00:53:38;99731.41;;;2.92;nan
70053;BME280;57398;52.032;4.376;2024-01-15T00:56:27;99734.56;;;2.94;nan
70053;BME280;57398;52.032;4.376;2024-01-15T00:59:15;99756.44;;;2.90;nan
70053;BME280;57398;52.032;4.376;2024-01-15T01:02:04;99717.22;;;3.03;nan
70053;BME280;57398;52.032;4.376;2024-01-15T01:04:52;99743.59;;;2.83;nan
70053;BME280;57398;52.032;4.376;2024-01-15T01:07:40;99773.63;;;2.89;nan
70053;BME280;57398;52.032;4.376;2024-01-15T01:10:28;99785.47;;;3.04;nan
70053;BME280;57398;52.032;4.376;2024-01-15T01:13:18;99808.75;;;2.96;nan
70053;BME280;57398;52.032;4.376;2024-01-15T01:16:06;99797.34;;;3.05;nan
70053;BME280;57398;52.032;4.376;2024-01-15T01:18:55;99670.63;;;2.99;nan
70053;BME280;57398;52.032;4.376;2024-01-15T01:21:43;99554.81;;;2.96;nan
70053;BME280;57398;52.032;4.376;2024-01-15T01:24:31;99405.88;;;2.77;nan
70053;BME280;57398;52.032;4.376;2024-01-15T01:27:20;99311.69;;;2.66;nan
70053;BME280;57398;52.032;4.376;2024-01-15T01:30:10;99228.50;;;2.55;nan
70053;BME280;57398;52.032;4.376;2024-01-15T01:32:58;99266.34;;;2.60;nan
70053;BME280;57398;52.032;4.376;2024-01-15T01:35:46;99315.66;;;2.48;nan
70053;BME280;57398;52.032;4.376;2024-01-15T01:38:34;99306.97;;;2.49;nan
70053;BME280;57398;52.032;4.376;2024-01-15T01:41:22;99318.66;;;2.45;nan
70053;BME280;57398;52.032;4.376;2024-01-15T01:44:11;99293.63;;;2.41;nan
70053;BME280;57398;52.032;4.376;2024-01-15T01:47:01;99252.84;;;2.33;nan
70053;BME280;57398;52.032;4.376;2024-01-15T01:49:50;99179.41;;;2.51;nan
70053;BME280;57398;52.032;4.376;2024-01-15T01:52:38;99118.94;;;2.44;nan
70053;BME280;57398;52.032;4.376;2024-01-15T01:55:27;98997.97;;;2.35;nan
70053;BME280;57398;52.032;4.376;2024-01-15T01:58:18;98934.41;;;2.25;nan
70053;BME280;57398;52.032;4.376;2024-01-15T02:01:07;98908.41;;;2.22;nan
70053;BME280;57398;52.032;4.376;2024-01-15T02:03:57;98870.44;;;2.19;nan
70053;BME280;57398;52.032;4.376;2024-01-15T02:06:45;98855.44;;;2.22;nan
70053;BME280;57398;52.032;4.376;2024-01-15T02:09:34;98865.75;;;2.16;nan
70053;BME280;57398;52.032;4.376;2024-01-15T02:12:22;98894.88;;;2.15;nan
70053;BME280;57398;52.032;4.376;2024-01-15T02:15:10;98950.25;;;1.91;nan
70053;BME280;57398;52.032;4.376;2024-01-15T02:17:59;98980.25;;;1.83;nan
70053;BME280;57398;52.032;4.376;2024-01-15T02:20:49;98971.00;;;1.76;nan
70053;BME280;57398;52.032;4.376;2024-01-15T02:23:39;98958.47;;;1.67;nan
70053;BME280;57398;52.032;4.376;2024-01-15T02:26:27;98927.06;;;1.54;nan
70053;BME280;57398;52.032;4.376;2024-01-15T02:29:15;98897.78;;;1.43;nan
70053;BME280;57398;52.032;4.376;2024-01-15T02:32:04;98874.88;;;1.55;nan
70053;BME280;57398;52.032;4.376;2024-01-15T02:34:52;98842.03;;;1.52;nan
70053;BME280;57398;52.032;4.376;2024-01-15T02:37:42;98889.16;;;1.69;nan
70053;BME280;57398;52.032;4.376;2024-01-15T02:40:31;98931.84;;;1.75;nan
70053;BME280;57398;52.032;4.376;2024-01-15T02:43:20;98985.00;;;1.73;nan
70053;BME280;57398;52.032;4.376;2024-01-15T02:46:08;98966.28;;;1.79;nan
70053;BME280;57398;52.032;4.376;2024-01-15T02:48:56;98994.72;;;1.96;nan
70053;BME280;57398;52.032;4.376;2024-01-15T02:51:44;99071.63;;;2.15;nan
70053;BME280;57398;52.032;4.376;2024-01-15T02:54:34;99122.47;;;2.18;nan
70053;BME280;57398;52.032;4.376;2024-01-15T02:57:23;99102.28;;;2.28;nan
70053;BME280;57398;52.032;4.376;2024-01-15T03:00:12;98938.38;;;2.21;nan
70053;BME280;57398;52.032;4.376;2024-01-15T03:03:00;98761.50;;;1.98;nan
70053;BME280;57398;52.032;4.376;2024-01-15T03:05:48;98645.16;;;1.75;nan
70053;BME280;57398;52.032;4.376;2024-01-15T03:08:37;98417.56;;;1.62;nan
70053;BME280;57398;52.032;4.376;2024-01-15T03:11:25;98653.47;;;1.52;nan
70053;BME280;57398;52.032;4.376;2024-01-15T03:14:14;98860.78;;;1.45;nan
70053;BME280;57398;52.032;4.376;2024-01-15T03:17:03;98995.91;;;1.62;nan
70053;BME280;57398;52.032;4.376;2024-01-15T03:19:51;99009.25;;;1.71;nan
70053;BME280;57398;52.032;4.376;2024-01-15T03:22:39;98977.84;;;1.88;nan
70053;BME280;57398;52.032;4.376;2024-01-15T03:25:27;98965.22;;;1.87;nan
70053;BME280;57398;52.032;4.376;2024-01-15T03:28:15;98966.06;;;2.06;nan
70053;BME280;57398;52.032;4.376;2024-01-15T03:31:05;99014.75;;;1.74;nan
70053;BME280;57398;52.032;4.376;2024-01-15T03:33:53;99118.00;;;1.48;nan
70053;BME280;57398;52.032;4.376;2024-01-15T03:36:42;99159.16;;;1.40;nan
70053;BME280;57398;52.032;4.376;2024-01-15T03:39:30;99177.84;;;1.34;nan
70053;BME280;57398;52.032;4.376;2024-01-15T03:42:18;99182.19;;;1.27;nan
70053;BME280;57398;52.032;4.376;2024-01-15T03:45:07;99183.75;;;1.14;nan
70053;BME280;57398;52.032;4.376;2024-01-15T03:47:56;99164.28;;;1.13;nan
70053;BME280;57398;52.032;4.376;2024-01-15T03:50:45;99161.91;;;1.12;nan
70053;BME280;57398;52.032;4.376;2024-01-15T03:53:33;99139.47;;;1.34;nan
70053;BME280;57398;52.032;4.376;2024-01-15T03:56:21;99135.91;;;1.41;nan
70053;BME280;57398;52.032;4.376;2024-01-15T03:59:09;99145.94;;;1.56;nan
70053;BME280;57398;52.032;4.376;2024-01-15T04:01:57;99131.34;;;1.57;nan
70053;BME280;57398;52.032;4.376;2024-01-15T04:04:46;99138.63;;;1.60;nan
70053;BME280;57398;52.032;4.376;2024-01-15T04:07:35;99127.56;;;1.73;nan
70053;BME280;57398;52.032;4.376;2024-01-15T04:10:23;99135.44;;;1.71;nan
70053;BME280;57398;52.032;4.376;2024-01-15T04:13:11;99150.06;;;1.57;nan
70053;BME280;57398;52.032;4.376;2024-01-15T04:16:00;99160.13;;;1.39;nan
70053;BME280;57398;52.032;4.376;2024-01-15T04:18:48;99154.06;;;1.27;nan
70053;BME280;57398;52.032;4.376;2024-01-15T04:21:37;99148.16;;;1.19;nan
70053;BME280;57398;52.032;4.376;2024-01-15T04:24:26;99151.88;;;1.17;nan
70053;BME280;57398;52.032;4.376;2024-01-15T04:27:14;99155.25;;;1.24;nan
70053;BME280;57398;52.032;4.376;2024-01-15T04:30:03;99170.59;;;1.24;nan
70053;BME280;57398;52.032;4.376;2024-01-15T04:32:51;99184.31;;;0.70;nan
70053;BME280;57398;52.032;4.376;2024-01-15T04:35:40;99194.25;;;0.31;nan
70053;BME280;57398;52.032;4.376;2024-01-15T04:38:29;99176.44;;;-0.04;nan
70053;BME280;57398;52.032;4.376;2024-01-15T04:41:17;99139.28;;;-0.19;nan
70053;BME280;57398;52.032;4.376;2024-01-15T04:44:05;99109.78;;;-0.29;nan
70053;BME280;57398;52.032;4.376;2024-01-15T04:46:54;99073.06;;;-0.28;nan
70053;BME280;57398;52.032;4.376;2024-01-15T04:49:42;99029.69;;;-0.28;nan
70053;BME280;57398;52.032;4.376;2024-01-15T04:52:30;99007.72;;;-0.29;nan
70053;BME280;57398;52.032;4.376;2024-01-15T04:55:19;98969.84;;;-0.18;nan
70053;BME280;57398;52.032;4.376;2024-01-15T04:58:07;98963.19;;;-0.26;nan
70053;BME280;57398;52.032;4.376;2024-01-15T05:00:56;98918.03;;;-0.32;nan
70053;BME280;57398;52.032;4.376;2024-01-15T05:03:44;98888.81;;;-0.30;nan
70053;BME280;57398;52.032;4.376;2024-01-15T05:06:32;98857.97;;;-0.35;nan
70053;BME280;57398;52.032;4.376;2024-01-15T05:09:20;98829.91;;;-0.35;nan
70053;BME280;57398;52.032;4.376;2024-01-15T05:12:10;98796.38;;;-0.38;nan
70053;BME280;57398;52.032;4.376;2024-01-15T05:14:58;98760.25;;;-0.35;nan
70053;BME280;57398;52.032;4.376;2024-01-15T05:17:46;98740.84;;;-0.30;nan
70053;BME280;57398;52.032;4.376;2024-01-15T05:20:35;98729.81;;;-0.24;nan
70053;BME280;57398;52.032;4.376;2024-01-15T05:23:23;98649.63;;;0.11;nan
70053;BME280;57398;52.032;4.376;2024-01-15T05:26:11;98610.19;;;0.38;nan
70053;BME280;57398;52.032;4.376;2024-01-15T05:29:00;98596.78;;;0.43;nan
70053;BME280;57398;52.032;4.376;2024-01-15T05:31:49;98574.13;;;0.53;nan
70053;BME280;57398;52.032;4.376;2024-01-15T05:34:37;98562.03;;;0.67;nan
70053;BME280;57398;52.032;4.376;2024-01-15T05:37:25;98568.91;;;0.67;nan
70053;BME280;57398;52.032;4.376;2024-01-15T05:40:14;98553.31;;;0.75;nan
70053;BME280;57398;52.032;4.376;2024-01-15T05:43:02;98546.53;;;0.87;nan
70053;BME280;57398;52.032;4.376;2024-01-15T05:45:52;98559.38;;;0.99;nan
70053;BME280;57398;52.032;4.376;2024-01-15T05:48:40;98581.44;;;0.93;nan
70053;BME280;57398;52.032;4.376;2024-01-15T05:51:28;98599.69;;;0.78;nan
70053;BME280;57398;52.032;4.376;2024-01-15T05:54:17;98617.81;;;0.95;nan
70053;BME280;57398;52.032;4.376;2024-01-15T05:57:05;98626.34;;;1.08;nan
70053;BME280;57398;52.032;4.376;2024-01-15T05:59:54;98645.91;;;1.20;nan
70053;BME280;57398;52.032;4.376;2024-01-15T06:02:43;98674.69;;;1.34;nan
70053;BME280;57398;52.032;4.376;2024-01-15T06:05:32;98712.09;;;1.35;nan
70053;BME280;57398;52.032;4.376;2024-01-15T06:08:20;98764.84;;;0.66;nan
70053;BME280;57398;52.032;4.376;2024-01-15T06:11:08;98787.81;;;0.28;nan
70053;BME280;57398;52.032;4.376;2024-01-15T06:13:56;98806.75;;;-0.07;nan
70053;BME280;57398;52.032;4.376;2024-01-15T06:16:44;98787.50;;;-0.09;nan
70053;BME280;57398;52.032;4.376;2024-01-15T06:19:34;98744.31;;;-0.11;nan
70053;BME280;57398;52.032;4.376;2024-01-15T06:22:22;98716.09;;;-0.16;nan
70053;BME280;57398;52.032;4.376;2024-01-15T06:25:10;98682.66;;;-0.01;nan
70053;BME280;57398;52.032;4.376;2024-01-15T06:27:58;98641.72;;;0.19;nan
70053;BME280;57398;52.032;4.376;2024-01-15T06:30:46;98641.91;;;0.17;nan
70053;BME280;57398;52.032;4.376;2024-01-15T06:33:35;98628.81;;;0.14;nan
70053;BME280;57398;52.032;4.376;2024-01-15T06:36:24;98632.72;;;0.16;nan
70053;BME280;57398;52.032;4.376;2024-01-15T06:39:12;98634.09;;;0.12;nan
70053;BME280;57398;52.032;4.376;2024-01-15T06:42:01;98644.34;;;0.06;nan
70053;BME280;57398;52.032;4.376;2024-01-15T06:44:49;98626.81;;;0.16;nan
70053;BME280;57398;52.032;4.376;2024-01-15T06:47:37;98596.53;;;0.19;nan
70053;BME280;57398;52.032;4.376;2024-01-15T06:50:26;98574.50;;;0.25;nan
70053;BME280;57398;52.032;4.376;2024-01-15T06:53:15;98583.34;;;0.23;nan
70053;BME280;57398;52.032;4.376;2024-01-15T06:56:04;98555.19;;;0.61;nan
70053;BME280;57398;52.032;4.376;2024-01-15T06:58:52;98557.63;;;0.74;nan
70053;BME280;57398;52.032;4.376;2024-01-15T07:01:40;98561.00;;;0.93;nan
70053;BME280;57398;52.032;4.376;2024-01-15T07:04:28;98564.91;;;0.96;nan
70053;BME280;57398;52.032;4.376;2024-01-15T07:07:16;98576.41;;;1.05;nan
70053;BME280;57398;52.032;4.376;2024-01-15T07:10:07;98573.53;;;1.01;nan
70053;BME280;57398;52.032;4.376;2024-01-15T07:12:55;98591.09;;;0.91;nan
70053;BME280;57398;52.032;4.376;2024-01-15T07:15:43;98578.19;;;1.04;nan
70053;BME280;57398;52.032;4.376;2024-01-15T07:18:32;98588.44;;;1.04;nan
70053;BME280;57398;52.032;4.376;2024-01-15T07:21:20;98588.00;;;1.08;nan
70053;BME280;57398;52.032;4.376;2024-01-15T07:24:08;98598.75;;;1.35;nan
70053;BME280;57398;52.032;4.376;2024-01-15T07:26:57;98616.94;;;1.63;nan
70053;BME280;57398;52.032;4.376;2024-01-15T07:29:46;98645.94;;;1.76;nan
70053;BME280;57398;52.032;4.376;2024-01-15T07:32:35;98687.59;;;1.64;nan
70053;BME280;57398;52.032;4.376;2024-01-15T07:35:23;98751.75;;;1.70;nan
70053;BME280;57398;52.032;4.376;2024-01-15T07:38:11;98797.28;;;1.61;nan
70053;BME280;57398;52.032;4.376;2024-01-15T07:41:00;98806.22;;;1.77;nan
70053;BME280;57398;52.032;4.376;2024-01-15T07:43:49;98867.34;;;1.60;nan
70053;BME280;57398;52.032;4.376;2024-01-15T07:46:37;98900.47;;;1.55;nan
70053;BME280;57398;52.032;4.376;2024-01-15T07:49:26;98913.22;;;1.61;nan
70053;BME280;57398;52.032;4.376;2024-01-15T07:52:14;98937.03;;;1.62;nan
70053;BME280;57398;52.032;4.376;2024-01-15T07:55:02;98940.59;;;1.61;nan
70053;BME280;57398;52.032;4.376;2024-01-15T07:57:52;98943.09;;;1.36;nan
70053;BME280;57398;52.032;4.376;2024-01-15T08:00:53;98970.22;;;1.37;nan
70053;BME280;57398;52.032;4.376;2024-01-15T08:03:42;98973.63;;;1.31;nan
70053;BME280;57398;52.032;4.376;2024-01-15T08:06:30;98948.97;;;1.36;nan
70053;BME280;57398;52.032;4.376;2024-01-15T08:09:18;98917.13;;;1.32;nan
70053;BME280;57398;52.032;4.376;2024-01-15T08:12:07;98855.34;;;1.35;nan
70053;BME280;57398;52.032;4.376;2024-01-15T08:14:57;98728.16;;;1.42;nan
70053;BME280;57398;52.032;4.376;2024-01-15T08:17:46;98278.06;;;1.48;nan
70053;BME280;57398;52.032;4.376;2024-01-15T08:20:34;98063.38;;;1.46;nan
70053;BME280;57398;52.032;4.376;2024-01-15T08:23:22;98037.13;;;1.51;nan
70053;BME280;57398;52.032;4.376;2024-01-15T08:26:11;98121.56;;;1.39;nan
70053;BME280;57398;52.032;4.376;2024-01-15T08:28:59;98147.25;;;1.44;nan
70053;BME280;57398;52.032;4.376;2024-01-15T08:31:48;98184.28;;;1.53;nan
70053;BME280;57398;52.032;4.376;2024-01-15T08:34:37;98217.63;;;1.46;nan
70053;BME280;57398;52.032;4.376;2024-01-15T08:37:26;98117.28;;;1.68;nan
70053;BME280;57398;52.032;4.376;2024-01-15T08:40:14;98467.03;;;1.56;nan
70053;BME280;57398;52.032;4.376;2024-01-15T08:43:02;98668.69;;;1.47;nan
70053;BME280;57398;52.032;4.376;2024-01-15T08:45:50;98778.31;;;1.43;nan
70053;BME280;57398;52.032;4.376;2024-01-15T08:48:39;98760.84;;;1.40;nan
70053;BME280;57398;52.032;4.376;2024-01-15T08:51:29;98699.31;;;1.35;nan
70053;BME280;57398;52.032;4.376;2024-01-15T08:54:17;98498.88;;;1.60;nan
70053;BME280;57398;52.032;4.376;2024-01-15T08:57:05;98386.22;;;1.90;nan
70053;BME280;57398;52.032;4.376;2024-01-15T08:59:53;98373.75;;;1.94;nan
70053;BME280;57398;52.032;4.376;2024-01-15T09:02:42;98297.19;;;1.68;nan
70053;BME280;57398;52.032;4.376;2024-01-15T09:05:30;98203.41;;;1.51;nan
70053;BME280;57398;52.032;4.376;2024-01-15T09:08:20;98650.91;;;1.52;nan
70053;BME280;57398;52.032;4.376;2024-01-15T09:11:08;98903.66;;;1.50;nan
70053;BME280;57398;52.032;4.376;2024-01-15T09:13:56;98966.41;;;1.53;nan
70053;BME280;57398;52.032;4.376;2024-01-15T09:16:45;98987.63;;;1.60;nan
70053;BME280;57398;52.032;4.376;2024-01-15T09:19:33;98983.53;;;1.59;nan
70053;BME280;57398;52.032;4.376;2024-01-15T09:22:22;98979.59;;;1.56;nan
70053;BME280;57398;52.032;4.376;2024-01-15T09:25:11;98944.88;;;1.67;nan
70053;BME280;57398;52.032;4.376;2024-01-15T09:28:02;98920.44;;;1.71;nan
70053;BME280;57398;52.032;4.376;2024-01-15T09:30:50;98915.69;;;1.75;nan
70053;BME280;57398;52.032;4.376;2024-01-15T09:33:38;98910.88;;;1.85;nan
70053;BME280;57398;52.032;4.376;2024-01-15T09:36:26;98888.28;;;1.82;nan
70053;BME280;57398;52.032;4.376;2024-01-15T09:39:15;98885.97;;;1.74;nan
70053;BME280;57398;52.032;4.376;2024-01-15T09:42:05;98839.31;;;1.72;nan
70053;BME280;57398;52.032;4.376;2024-01-15T09:44:53;98829.41;;;1.25;nan
70053;BME280;57398;52.032;4.376;2024-01-15T09:47:41;98923.53;;;1.10;nan
70053;BME280;57398;52.032;4.376;2024-01-15T09:50:31;98993.22;;;0.92;nan
70053;BME280;57398;52.032;4.376;2024-01-15T09:53:20;99067.34;;;0.92;nan
70053;BME280;57398;52.032;4.376;2024-01-15T09:56:08;99106.28;;;0.80;nan
70053;BME280;57398;52.032;4.376;2024-01-15T09:58:58;99129.66;;;0.64;nan
70053;BME280;57398;52.032;4.376;2024-01-15T10:01:48;99140.84;;;0.56;nan
70053;BME280;57398;52.032;4.376;2024-01-15T10:04:38;99139.09;;;0.70;nan
70053;BME280;57398;52.032;4.376;2024-01-15T10:07:26;99125.34;;;0.78;nan
70053;BME280;57398;52.032;4.376;2024-01-15T10:10:17;99122.59;;;0.99;nan
70053;BME280;57398;52.032;4.376;2024-01-15T10:13:05;99140.28;;;1.08;nan
70053;BME280;57398;52.032;4.376;2024-01-15T10:15:55;99133.59;;;1.13;nan
70053;BME280;57398;52.032;4.376;2024-01-15T10:18:45;99130.63;;;1.23;nan
70053;BME280;57398;52.032;4.376;2024-01-15T10:21:34;99136.31;;;1.38;nan
70053;BME280;57398;52.032;4.376;2024-01-15T10:24:22;99119.97;;;1.33;nan
70053;BME280;57398;52.032;4.376;2024-01-15T10:27:12;99117.03;;;1.36;nan
70053;BME280;57398;52.032;4.376;2024-01-15T10:30:00;99089.09;;;1.41;nan
70053;BME280;57398;52.032;4.376;2024-01-15T10:32:58;99070.91;;;1.56;nan
70053;BME280;57398;52.032;4.376;2024-01-15T10:35:48;99037.94;;;1.79;nan
70053;BME280;57398;52.032;4.376;2024-01-15T10:38:36;98984.91;;;1.93;nan
70053;BME280;57398;52.032;4.376;2024-01-15T10:41:24;98885.66;;;1.88;nan
70053;BME280;57398;52.032;4.376;2024-01-15T10:44:12;98707.59;;;2.11;nan
70053;BME280;57398;52.032;4.376;2024-01-15T10:47:00;98498.53;;;1.98;nan
70053;BME280;57398;52.032;4.376;2024-01-15T10:49:50;98356.41;;;1.96;nan
70053;BME280;57398;52.032;4.376;2024-01-15T10:52:40;98736.31;;;1.95;nan
70053;BME280;57398;52.032;4.376;2024-01-15T10:55:30;98864.91;;;1.97;nan
70053;BME280;57398;52.032;4.376;2024-01-15T10:58:20;98905.50;;;2.18;nan
70053;BME280;57398;52.032;4.376;2024-01-15T11:01:09;98908.16;;;2.30;nan
70053;BME280;57398;52.032;4.376;2024-01-15T11:03:57;99014.50;;;2.39;nan
70053;BME280;57398;52.032;4.376;2024-01-15T11:06:49;99038.72;;;2.43;nan
70053;BME280;57398;52.032;4.376;2024-01-15T11:09:38;99015.25;;;2.46;nan
70053;BME280;57398;52.032;4.376;2024-01-15T11:12:26;99162.06;;;2.54;nan
70053;BME280;57398;52.032;4.376;2024-01-15T11:15:19;99217.81;;;2.58;nan
70053;BME280;57398;52.032;4.376;2024-01-15T11:18:09;99216.84;;;2.59;nan
70053;BME280;57398;52.032;4.376;2024-01-15T11:21:24;99179.16;;;2.66;nan
70053;BME280;57398;52.032;4.376;2024-01-15T11:24:33;99110.19;;;2.83;nan
70053;BME280;57398;52.032;4.376;2024-01-15T11:27:39;99182.03;;;2.38;nan
70053;BME280;57398;52.032;4.376;2024-01-15T11:30:31;99135.06;;;2.13;nan
70053;BME280;57398;52.032;4.376;2024-01-15T11:33:32;99049.47;;;2.02;nan
70053;BME280;57398;52.032;4.376;2024-01-15T11:36:21;98829.75;;;1.85;nan
70053;BME280;57398;52.032;4.376;2024-01-15T11:42:29;98693.28;;;1.48;nan
70053;BME280;57398;52.032;4.376;2024-01-15T11:45:19;98407.34;;;1.32;nan
70053;BME280;57398;52.032;4.376;2024-01-15T11:48:12;98632.56;;;1.37;nan
70053;BME280;57398;52.032;4.376;2024-01-15T11:51:01;99211.88;;;1.34;nan
70053;BME280;57398;52.032;4.376;2024-01-15T11:53:53;99060.81;;;1.16;nan
70053;BME280;57398;52.032;4.376;2024-01-15T11:56:44;98999.84;;;1.13;nan
70053;BME280;57398;52.032;4.376;2024-01-15T11:59:34;98971.31;;;1.16;nan
70053;BME280;57398;52.032;4.376;2024-01-15T12:02:22;98952.22;;;1.18;nan
70053;BME280;57398;52.032;4.376;2024-01-15T12:05:11;98945.88;;;1.28;nan
70053;BME280;57398;52.032;4.376;2024-01-15T12:08:00;98976.72;;;1.39;nan
70053;BME280;57398;52.032;4.376;2024-01-15T12:10:48;99028.00;;;1.58;nan
70053;BME280;57398;52.032;4.376;2024-01-15T12:13:36;99065.94;;;1.74;nan
70053;BME280;57398;52.032;4.376;2024-01-15T12:16:27;99082.34;;;1.98;nan
70053;BME280;57398;52.032;4.376;2024-01-15T12:19:15;99109.69;;;2.11;nan
70053;BME280;57398;52.032;4.376;2024-01-15T12:22:04;99152.53;;;2.29;nan
70053;BME280;57398;52.032;4.376;2024-01-15T12:24:52;99164.25;;;2.50;nan
70053;BME280;57398;52.032;4.376;2024-01-15T12:27:40;99160.84;;;2.56;nan
70053;BME280;57398;52.032;4.376;2024-01-15T12:30:29;98980.34;;;2.70;nan
70053;BME280;57398;52.032;4.376;2024-01-15T12:33:20;98330.84;;;2.77;nan
70053;BME280;57398;52.032;4.376;2024-01-15T12:36:08;98378.81;;;2.93;nan
70053;BME280;57398;52.032;4.376;2024-01-15T12:38:59;98659.16;;;3.05;nan
70053;BME280;57398;52.032;4.376;2024-01-15T12:41:47;98893.47;;;3.11;nan
70053;BME280;57398;52.032;4.376;2024-01-15T12:44:35;99082.56;;;3.04;nan
70053;BME280;57398;52.032;4.376;2024-01-15T12:47:24;99220.94;;;2.99;nan
70053;BME280;57398;52.032;4.376;2024-01-15T12:50:14;99423.38;;;3.00;nan
70053;BME280;57398;52.032;4.376;2024-01-15T12:53:05;99579.47;;;2.97;nan
70053;BME280;57398;52.032;4.376;2024-01-15T12:55:55;99586.38;;;2.96;nan
70053;BME280;57398;52.032;4.376;2024-01-15T12:58:43;99543.16;;;2.93;nan
70053;BME280;57398;52.032;4.376;2024-01-15T13:01:31;99450.56;;;3.14;nan
70053;BME280;57398;52.032;4.376;2024-01-15T13:04:22;99351.94;;;3.35;nan
70053;BME280;57398;52.032;4.376;2024-01-15T13:07:14;99426.41;;;3.29;nan
70053;BME280;57398;52.032;4.376;2024-01-15T13:10:02;99273.88;;;1.70;nan
70053;BME280;57398;52.032;4.376;2024-01-15T13:12:50;99310.59;;;0.95;nan
70053;BME280;57398;52.032;4.376;2024-01-15T13:15:38;99313.78;;;0.49;nan
70053;BME280;57398;52.032;4.376;2024-01-15T13:18:27;99295.09;;;0.42;nan
70053;BME280;57398;52.032;4.376;2024-01-15T13:21:15;99276.63;;;0.47;nan
70053;BME280;57398;52.032;4.376;2024-01-15T13:24:05;99270.78;;;0.59;nan
70053;BME280;57398;52.032;4.376;2024-01-15T13:26:53;99284.94;;;0.55;nan
70053;BME280;57398;52.032;4.376;2024-01-15T13:29:42;99281.00;;;0.53;nan
70053;BME280;57398;52.032;4.376;2024-01-15T13:32:30;99275.53;;;0.62;nan
70053;BME280;57398;52.032;4.376;2024-01-15T13:35:18;99280.84;;;0.74;nan
70053;BME280;57398;52.032;4.376;2024-01-15T13:38:06;99283.44;;;0.81;nan
70053;BME280;57398;52.032;4.376;2024-01-15T13:40:57;99276.75;;;0.87;nan
70053;BME280;57398;52.032;4.376;2024-01-15T13:43:45;99265.78;;;1.06;nan
70053;BME280;57398;52.032;4.376;2024-01-15T13:46:34;99271.28;;;1.16;nan
70053;BME280;57398;52.032;4.376;2024-01-15T13:49:22;99263.03;;;1.28;nan
70053;BME280;57398;52.032;4.376;2024-01-15T13:52:11;99271.13;;;1.31;nan
70053;BME280;57398;52.032;4.376;2024-01-15T13:55:00;99272.31;;;1.35;nan
70053;BME280;57398;52.032;4.376;2024-01-15T13:57:49;99267.38;;;1.67;nan
70053;BME280;57398;52.032;4.376;2024-01-15T14:00:38;99268.53;;;1.84;nan
70053;BME280;57398;52.032;4.376;2024-01-15T14:03:26;99261.41;;;2.06;nan
70053;BME280;57398;52.032;4.376;2024-01-15T14:06:15;98780.84;;;2.12;nan
70053;BME280;57398;52.032;4.376;2024-01-15T14:09:03;98654.56;;;2.42;nan
70053;BME280;57398;52.032;4.376;2024-01-15T14:11:52;99258.50;;;2.48;nan
70053;BME280;57398;52.032;4.376;2024-01-15T14:14:42;99462.53;;;2.29;nan
70053;BME280;57398;52.032;4.376;2024-01-15T14:17:30;99586.13;;;2.24;nan
70053;BME280;57398;52.032;4.376;2024-01-15T14:20:19;99658.06;;;2.16;nan
70053;BME280;57398;52.032;4.376;2024-01-15T14:23:08;99712.50;;;1.90;nan
70053;BME280;57398;52.032;4.376;2024-01-15T14:25:57;99741.13;;;1.65;nan
70053;BME280;57398;52.032;4.376;2024-01-15T14:28:45;99707.31;;;1.49;nan
70053;BME280;57398;52.032;4.376;2024-01-15T14:31:39;99621.53;;;1.53;nan
70053;BME280;57398;52.032;4.376;2024-01-15T14:34:27;99568.53;;;1.46;nan
70053;BME280;57398;52.032;4.376;2024-01-15T14:37:15;99506.56;;;1.58;nan
70053;BME280;57398;52.032;4.376;2024-01-15T14:40:04;99493.59;;;1.66;nan
70053;BME280;57398;52.032;4.376;2024-01-15T14:42:54;99440.03;;;1.64;nan
70053;BME280;57398;52.032;4.376;2024-01-15T14:45:42;99424.91;;;1.70;nan
70053;BME280;57398;52.032;4.376;2024-01-15T14:48:34;99403.41;;;1.57;nan
70053;BME280;57398;52.032;4.376;2024-01-15T14:51:22;99363.44;;;1.43;nan
70053;BME280;57398;52.032;4.376;2024-01-15T14:54:10;99281.16;;;1.46;nan
70053;BME280;57398;52.032;4.376;2024-01-15T14:56:59;99217.00;;;1.61;nan
70053;BME280;57398;52.032;4.376;2024-01-15T14:59:47;99229.94;;;1.93;nan
70053;BME280;57398;52.032;4.376;2024-01-15T15:02:35;99285.41;;;2.12;nan
70053;BME280;57398;52.032;4.376;2024-01-15T15:05:26;99346.34;;;1.77;nan
70053;BME280;57398;52.032;4.376;2024-01-15T15:08:14;99395.34;;;1.60;nan
70053;BME280;57398;52.032;4.376;2024-01-15T15:11:03;99339.63;;;1.62;nan
70053;BME280;57398;52.032;4.376;2024-01-15T15:13:52;98609.41;;;1.68;nan
70053;BME280;57398;52.032;4.376;2024-01-15T15:16:40;98825.16;;;1.69;nan
70053;BME280;57398;52.032;4.376;2024-01-15T15:19:28;99109.63;;;1.79;nan
70053;BME280;57398;52.032;4.376;2024-01-15T15:22:17;99289.00;;;2.04;nan
70053;BME280;57398;52.032;4.376;2024-01-15T15:25:06;99384.53;;;1.98;nan
70053;BME280;57398;52.032;4.376;2024-01-15T15:27:56;99317.97;;;1.72;nan
70053;BME280;57398;52.032;4.376;2024-01-15T15:30:44;99219.09;;;1.84;nan
70053;BME280;57398;52.032;4.376;2024-01-15T15:33:32;99155.09;;;1.91;nan